createdAt,value
2023-03-02T00:00:32.438Z,27.88
2023-03-02T00:05:35.454Z,35.25
2023-03-02T00:10:38.240Z,38.45
2023-03-02T00:15:40.198Z,35.28
2023-03-02T00:20:41.942Z,36.85
2023-03-02T00:25:43.661Z,39.75
2023-03-02T00:30:45.445Z,42.30
2023-03-02T00:35:47.218Z,47.92
2023-03-02T00:40:49.447Z,43.40
2023-03-02T00:45:51.092Z,45.30
2023-03-02T00:50:52.782Z,48.35
2023-03-02T00:55:55.269Z,46.30
2023-03-02T01:00:59.171Z,50.15
2023-03-02T01:06:02.417Z,39.90
2023-03-02T01:11:04.338Z,43.03
2023-03-02T01:16:06.345Z,40.38
2023-03-02T01:21:11.973Z,39.47
2023-03-02T01:26:13.814Z,53.75
2023-03-02T01:31:15.509Z,41.80
2023-03-02T01:36:17.774Z,47.75
2023-03-02T01:47:54.009Z,53.67
2023-03-02T01:52:56.693Z,38.10
2023-03-02T01:58:01.697Z,47.53
2023-03-02T02:03:09.263Z,46.88
2023-03-02T02:08:11.197Z,45.88
2023-03-02T02:13:13.721Z,52.80
2023-03-02T02:18:15.333Z,37.88
2023-03-02T02:23:34.971Z,43.22
2023-03-02T02:28:44.765Z,46.42
2023-03-02T02:33:55.181Z,48.97
2023-03-02T02:38:57.146Z,45.88
2023-03-02T02:43:59.292Z,54.65
2023-03-02T02:49:03.051Z,51.15
2023-03-02T02:54:04.877Z,47.63
2023-03-02T02:59:23.760Z,54.97
2023-03-02T03:04:29.981Z,51.22
2023-03-02T03:09:33.261Z,53.88
2023-03-02T03:14:39.389Z,52.17
2023-03-02T03:19:44.681Z,49.30
2023-03-02T03:24:46.804Z,52.53
2023-03-02T03:29:50.339Z,53.58
2023-03-02T03:34:54.068Z,55.97
2023-03-02T03:40:09.793Z,55.70
2023-03-02T03:45:13.811Z,47.40
2023-03-02T03:50:18.364Z,54.05
2023-03-02T03:55:20.163Z,59.25
2023-03-02T04:00:24.244Z,65.43
2023-03-02T04:05:34.619Z,50.60
2023-03-02T04:10:37.852Z,50.72
2023-03-02T04:15:41.908Z,53.78
2023-03-02T04:20:43.855Z,60.22
2023-03-02T04:25:45.770Z,64.45
2023-03-02T04:30:52.284Z,57.23
2023-03-02T04:35:54.654Z,70.68
2023-03-02T04:40:57.656Z,58.22
2023-03-02T04:45:59.852Z,62.35
2023-03-02T04:51:01.601Z,55.90
2023-03-02T04:56:03.516Z,60.80
2023-03-02T05:01:05.289Z,62.85
2023-03-02T05:06:07.916Z,55.88
2023-03-02T05:11:15.853Z,58.58
2023-03-02T05:16:18.077Z,63.15
2023-03-02T05:21:19.872Z,52.65
2023-03-02T05:26:21.604Z,59.30
2023-03-02T05:31:43.555Z,50.83
2023-03-02T05:36:46.278Z,68.47
2023-03-02T05:41:48.601Z,69.97
2023-03-02T05:46:50.302Z,60.40
2023-03-02T05:51:51.964Z,59.30
2023-03-02T05:56:53.670Z,69.45
2023-03-02T06:01:58.828Z,58.55
2023-03-02T06:07:00.667Z,71.95
2023-03-02T06:12:02.306Z,65.65
2023-03-02T06:17:04.165Z,63.55
2023-03-02T06:22:05.858Z,63.58
2023-03-02T06:27:07.516Z,65.00
2023-03-02T06:32:10.539Z,53.03
2023-03-02T06:37:12.333Z,54.88
2023-03-02T06:42:14.112Z,60.15
2023-03-02T06:47:15.798Z,40.45
2023-03-02T06:52:17.672Z,34.08
2023-03-02T06:57:19.331Z,42.05
2023-03-02T07:02:20.980Z,45.58
2023-03-02T07:07:22.635Z,40.70
2023-03-02T07:12:24.800Z,41.55
2023-03-02T07:17:26.687Z,50.88
2023-03-02T07:22:28.313Z,43.28
2023-03-02T07:27:30.106Z,47.53
2023-03-02T07:32:31.845Z,53.10
2023-03-02T07:37:33.576Z,51.55
2023-03-02T07:42:35.208Z,52.00
2023-03-02T07:47:37.983Z,50.63
2023-03-02T07:52:39.679Z,44.00
2023-03-02T07:57:41.448Z,51.67
2023-03-02T08:02:43.267Z,56.15
2023-03-02T08:07:46.695Z,49.33
2023-03-02T08:12:48.391Z,64.03
2023-03-02T08:17:50.061Z,60.15
2023-03-02T08:22:51.935Z,47.95
2023-03-02T08:27:53.718Z,60.33
2023-03-02T08:32:55.421Z,52.45
2023-03-02T08:37:59.675Z,53.95
2023-03-02T08:43:01.385Z,48.15
2023-03-02T08:48:03.222Z,57.30
2023-03-02T08:53:04.894Z,50.50
2023-03-02T08:58:06.599Z,52.50
2023-03-02T09:03:08.253Z,58.00
2023-03-02T09:08:10.525Z,49.30
2023-03-02T09:13:12.177Z,53.22
2023-03-02T09:18:13.834Z,51.13
2023-03-02T09:23:24.548Z,50.28
2023-03-02T09:28:26.294Z,54.58
2023-03-02T09:33:28.733Z,46.65
2023-03-02T09:38:30.369Z,47.33
2023-03-02T09:43:50.072Z,49.50
2023-03-02T09:49:25.974Z,51.50
2023-03-02T09:54:28.908Z,50.85
2023-03-02T09:59:39.426Z,41.88
2023-03-02T10:04:50.203Z,46.00
2023-03-02T10:09:52.129Z,44.30
2023-03-02T10:15:04.182Z,39.75
2023-03-02T10:20:17.025Z,37.05
2023-03-02T10:25:50.642Z,33.88
2023-03-02T10:31:05.442Z,33.53
2023-03-02T10:36:21.397Z,33.08
2023-03-02T10:41:29.083Z,43.60
2023-03-02T10:46:46.269Z,26.45
2023-03-02T10:51:58.124Z,22.55
2023-03-02T10:57:03.718Z,18.67
2023-03-02T11:02:23.239Z,23.88
2023-03-02T11:07:28.499Z,19.88
2023-03-02T11:12:31.237Z,19.77
2023-03-02T11:17:38.507Z,25.30
2023-03-02T11:23:00.687Z,19.02
2023-03-02T11:28:17.238Z,19.23
2023-03-02T11:33:34.696Z,16.17
2023-03-02T11:38:53.438Z,15.73
2023-03-02T11:43:58.277Z,16.60
2023-03-02T11:49:05.392Z,15.43
2023-03-02T11:54:44.279Z,16.40
2023-03-02T11:59:46.293Z,14.07
2023-03-02T12:04:48.867Z,15.93
2023-03-02T12:10:08.128Z,14.32
2023-03-02T12:15:33.952Z,13.73
2023-03-02T12:20:37.411Z,13.60
2023-03-02T12:25:51.139Z,12.75
2023-03-02T12:31:10.998Z,11.65
2023-03-02T12:36:17.680Z,12.32
2023-03-02T12:41:41.553Z,11.95
2023-03-02T12:46:48.823Z,9.98
2023-03-02T12:51:52.860Z,10.80
2023-03-02T12:57:08.794Z,11.95
2023-03-02T13:02:16.252Z,11.98
2023-03-02T13:07:22.155Z,14.07
2023-03-02T13:12:26.882Z,14.93
2023-03-02T13:17:33.056Z,15.18
2023-03-02T13:22:34.849Z,15.20
2023-03-02T13:27:36.590Z,16.02
2023-03-02T13:32:42.149Z,15.80
2023-03-02T13:37:44.313Z,16.25
2023-03-02T13:42:46.077Z,17.67
2023-03-02T13:47:47.867Z,19.27
2023-03-02T13:52:50.599Z,18.08
2023-03-02T13:57:54.199Z,17.13
2023-03-02T14:02:55.874Z,20.95
2023-03-02T14:07:57.490Z,17.00
2023-03-02T14:13:05.501Z,17.20
2023-03-02T14:18:30.210Z,17.65
2023-03-02T14:23:32.158Z,17.25
2023-03-02T14:28:35.973Z,18.38
2023-03-02T14:33:38.035Z,17.20
2023-03-02T14:38:39.736Z,24.30
2023-03-02T14:43:41.479Z,17.10
2023-03-02T14:48:43.253Z,16.60
2023-03-02T14:53:44.942Z,17.55
2023-03-02T14:58:46.761Z,21.15
2023-03-02T15:03:48.413Z,17.50
2023-03-02T15:08:50.054Z,16.92
2023-03-02T15:13:51.902Z,17.15
2023-03-02T15:18:53.974Z,13.48
2023-03-02T15:23:55.775Z,13.00
2023-03-02T15:28:57.562Z,13.02
2023-03-02T15:33:59.423Z,13.13
2023-03-02T15:39:01.072Z,12.93
2023-03-02T15:44:02.772Z,13.50
2023-03-02T15:49:04.456Z,12.13
2023-03-02T15:54:06.659Z,15.10
2023-03-02T15:59:08.276Z,13.52
2023-03-02T16:04:10.429Z,12.57
2023-03-02T16:09:12.578Z,16.20
2023-03-02T16:14:15.609Z,12.23
2023-03-02T16:19:19.281Z,13.75
2023-03-02T16:24:21.265Z,14.45
2023-03-02T16:29:24.252Z,15.55
2023-03-02T16:34:25.883Z,16.95
2023-03-02T16:39:27.558Z,17.15
2023-03-02T16:44:29.265Z,17.90
2023-03-02T16:49:30.942Z,18.35
2023-03-02T16:54:32.574Z,20.95
2023-03-02T16:59:34.277Z,17.88
2023-03-02T17:04:37.243Z,19.15
2023-03-02T17:09:41.819Z,20.42
2023-03-02T17:14:43.549Z,28.70
2023-03-02T17:19:45.191Z,22.98
2023-03-02T17:24:46.835Z,31.42
2023-03-02T17:29:48.479Z,33.38
2023-03-02T17:34:50.535Z,34.83
2023-03-02T17:39:52.678Z,31.13
2023-03-02T17:44:54.430Z,27.35
2023-03-02T17:49:58.329Z,23.83
2023-03-02T17:54:59.939Z,32.38
2023-03-02T18:00:01.937Z,28.25
2023-03-02T18:05:08.244Z,36.95
2023-03-02T18:10:10.780Z,38.40
2023-03-02T18:15:12.950Z,33.65
2023-03-02T18:20:15.036Z,28.42
2023-03-02T18:25:17.063Z,43.90
2023-03-02T18:30:21.223Z,42.40
2023-03-02T18:35:23.943Z,43.15
2023-03-02T18:40:25.976Z,39.88
2023-03-02T18:45:30.511Z,46.13
2023-03-02T18:50:32.528Z,44.85
2023-03-02T18:55:37.147Z,70.03
2023-03-02T19:00:39.267Z,58.28
2023-03-02T19:05:42.393Z,35.00
2023-03-02T19:10:44.175Z,40.95
2023-03-02T19:15:47.220Z,36.95
2023-03-02T19:20:50.797Z,39.72
2023-03-02T19:25:55.571Z,29.95
2023-03-02T19:30:57.739Z,28.25
2023-03-02T19:35:59.900Z,31.10
2023-03-02T19:41:02.121Z,38.63
2023-03-02T19:46:05.267Z,73.53
2023-03-02T19:51:09.094Z,43.00
2023-03-02T19:56:14.310Z,30.17
2023-03-02T20:01:25.092Z,25.98
2023-03-02T20:06:30.513Z,38.90
2023-03-02T20:11:32.377Z,35.45
2023-03-02T20:16:36.015Z,39.95
2023-03-02T20:21:38.451Z,86.60
2023-03-02T20:26:42.166Z,41.53
2023-03-02T20:31:44.637Z,45.08
2023-03-02T20:36:47.110Z,64.50
2023-03-02T20:41:51.709Z,63.95
2023-03-02T20:46:58.137Z,46.30
2023-03-02T20:52:00.281Z,51.95
2023-03-02T20:57:02.062Z,41.97
2023-03-02T21:02:04.601Z,46.72
2023-03-02T21:07:06.698Z,48.28
2023-03-02T21:12:11.841Z,49.33
2023-03-02T21:17:13.594Z,55.65
2023-03-02T21:22:15.297Z,43.33
2023-03-02T21:27:16.946Z,52.95
2023-03-02T21:32:18.954Z,59.97
2023-03-02T21:37:20.702Z,79.35
2023-03-02T21:42:22.640Z,60.05
2023-03-02T21:47:24.350Z,56.95
2023-03-02T21:52:27.296Z,63.40
2023-03-02T21:57:28.913Z,67.40
2023-03-02T22:02:31.271Z,61.53
2023-03-02T22:07:32.875Z,61.20
2023-03-02T22:12:34.576Z,77.82
2023-03-02T22:17:36.273Z,66.90
2023-03-02T22:22:37.875Z,73.18
2023-03-02T22:27:39.483Z,74.50
2023-03-02T22:32:41.153Z,73.25
2023-03-02T22:37:42.824Z,78.75
2023-03-02T22:42:44.522Z,72.85
2023-03-02T22:47:51.265Z,81.93
2023-03-02T22:52:54.563Z,84.43
2023-03-02T22:57:56.255Z,75.47
2023-03-02T23:02:57.876Z,73.63
2023-03-02T23:08:22.572Z,70.00
2023-03-02T23:13:30.236Z,81.53
2023-03-02T23:18:32.892Z,87.53
2023-03-02T23:23:34.874Z,88.60
2023-03-02T23:28:36.503Z,88.63
2023-03-02T23:33:38.143Z,88.50
2023-03-02T23:38:40.639Z,89.55
2023-03-02T23:43:42.523Z,92.95
2023-03-02T23:48:44.410Z,98.28
2023-03-02T23:53:46.137Z,108.15
2023-03-02T23:58:48.116Z,116.18
